sensor_id;sensor_type;location;lat;lon;timestamp;P1;durP1;ratioP1;P2;durP2;ratioP2
63953;SDS011;50128;52.094;5.232;2023-01-31T00:01:26;18.0;;;4.61;;
63953;SDS011;50128;52.094;5.232;2023-01-31T00:04:40;16.2;;;4.3;;
63953;SDS011;50128;52.094;5.232;2023-01-31T00:06:17;16.2;;;4.0;;
63953;SDS011;50128;52.094;5.232;2023-01-31T00:07:56;16.4;;;4.1;;
63953;SDS011;50128;52.094;5.232;2023-01-31T00:11:08;19.91;;;4.7;;
63953;SDS011;50128;52.094;5.232;2023-01-31T00:12:45;20.3;;;5.11;;
63953;SDS011;50128;52.094;5.232;2023-01-31T00:14:21;16.7;;;4.5;;
63953;SDS011;50128;52.094;5.232;2023-01-31T00:15:58;15.0;;;3.9;;
63953;SDS011;50128;52.094;5.232;2023-01-31T00:19:10;18.7;;;4.8;;
63953;SDS011;50128;52.094;5.232;2023-01-31T00:20:46;16.0;;;4.91;;
63953;SDS011;50128;52.094;5.232;2023-01-31T00:22:23;16.0;;;4.91;;
63953;SDS011;50128;52.094;5.232;2023-01-31T00:25:36;19.0;;;4.61;;
63953;SDS011;50128;52.094;5.232;2023-01-31T00:27:13;18.61;;;4.7;;
63953;SDS011;50128;52.094;5.232;2023-01-31T00:28:50;15.7;;;4.61;;
63953;SDS011;50128;52.094;5.232;2023-01-31T00:32:04;16.9;;;4.5;;
63953;SDS011;50128;52.094;5.232;2023-01-31T00:33:41;15.3;;;4.0;;
63953;SDS011;50128;52.094;5.232;2023-01-31T00:35:19;16.61;;;3.9;;
63953;SDS011;50128;52.094;5.232;2023-01-31T00:36:55;20.8;;;4.61;;
63953;SDS011;50128;52.094;5.232;2023-01-31T00:40:09;15.9;;;3.6;;
63953;SDS011;50128;52.094;5.232;2023-01-31T00:41:46;16.3;;;4.3;;
63953;SDS011;50128;52.094;5.232;2023-01-31T00:43:23;19.2;;;4.61;;
63953;SDS011;50128;52.094;5.232;2023-01-31T00:46:35;15.9;;;3.8;;
63953;SDS011;50128;52.094;5.232;2023-01-31T00:48:11;17.5;;;4.41;;
63953;SDS011;50128;52.094;5.232;2023-01-31T00:49:47;15.7;;;3.9;;
63953;SDS011;50128;52.094;5.232;2023-01-31T00:53:02;13.5;;;3.8;;
63953;SDS011;50128;52.094;5.232;2023-01-31T00:54:39;16.3;;;4.41;;
63953;SDS011;50128;52.094;5.232;2023-01-31T00:56:16;12.5;;;3.3;;
63953;SDS011;50128;52.094;5.232;2023-01-31T00:57:58;19.5;;;4.2;;
63953;SDS011;50128;52.094;5.232;2023-01-31T01:01:11;15.9;;;4.1;;
63953;SDS011;50128;52.094;5.232;2023-01-31T01:02:50;17.5;;;4.2;;
63953;SDS011;50128;52.094;5.232;2023-01-31T01:04:26;20.11;;;4.3;;
63953;SDS011;50128;52.094;5.232;2023-01-31T01:07:41;15.7;;;4.3;;
63953;SDS011;50128;52.094;5.232;2023-01-31T01:09:18;16.9;;;4.0;;
63953;SDS011;50128;52.094;5.232;2023-01-31T01:10:54;14.8;;;3.9;;
63953;SDS011;50128;52.094;5.232;2023-01-31T01:12:31;20.8;;;4.5;;
63953;SDS011;50128;52.094;5.232;2023-01-31T01:15:43;16.2;;;4.5;;
63953;SDS011;50128;52.094;5.232;2023-01-31T01:17:19;16.2;;;4.5;;
63953;SDS011;50128;52.094;5.232;2023-01-31T01:18:55;13.1;;;3.7;;
63953;SDS011;50128;52.094;5.232;2023-01-31T01:22:15;17.91;;;4.0;;
63953;SDS011;50128;52.094;5.232;2023-01-31T01:23:52;17.0;;;4.61;;
63953;SDS011;50128;52.094;5.232;2023-01-31T01:25:36;18.2;;;4.3;;
63953;SDS011;50128;52.094;5.232;2023-01-31T01:27:17;18.5;;;4.61;;
63953;SDS011;50128;52.094;5.232;2023-01-31T01:30:31;18.11;;;4.2;;
63953;SDS011;50128;52.094;5.232;2023-01-31T01:32:07;17.2;;;4.7;;
63953;SDS011;50128;52.094;5.232;2023-01-31T01:33:44;18.41;;;4.61;;
63953;SDS011;50128;52.094;5.232;2023-01-31T01:35:22;17.8;;;4.5;;
63953;SDS011;50128;52.094;5.232;2023-01-31T01:38:36;19.91;;;5.11;;
63953;SDS011;50128;52.094;5.232;2023-01-31T01:40:12;22.1;;;5.0;;
63953;SDS011;50128;52.094;5.232;2023-01-31T01:41:50;16.5;;;4.5;;
63953;SDS011;50128;52.094;5.232;2023-01-31T01:45:20;17.41;;;4.5;;
63953;SDS011;50128;52.094;5.232;2023-01-31T01:46:56;17.0;;;4.0;;
63953;SDS011;50128;52.094;5.232;2023-01-31T01:48:34;17.2;;;4.5;;
63953;SDS011;50128;52.094;5.232;2023-01-31T01:50:12;20.5;;;4.91;;
63953;SDS011;50128;52.094;5.232;2023-01-31T01:53:46;17.3;;;4.0;;
63953;SDS011;50128;52.094;5.232;2023-01-31T01:55:28;20.5;;;4.1;;
63953;SDS011;50128;52.094;5.232;2023-01-31T01:57:09;19.3;;;4.5;;
63953;SDS011;50128;52.094;5.232;2023-01-31T01:58:51;17.2;;;3.9;;
63953;SDS011;50128;52.094;5.232;2023-01-31T02:00:34;19.91;;;4.41;;
63953;SDS011;50128;52.094;5.232;2023-01-31T02:03:49;19.3;;;4.7;;
63953;SDS011;50128;52.094;5.232;2023-01-31T02:05:29;16.8;;;4.61;;
63953;SDS011;50128;52.094;5.232;2023-01-31T02:07:10;20.8;;;4.91;;
63953;SDS011;50128;52.094;5.232;2023-01-31T02:10:25;23.4;;;5.3;;
63953;SDS011;50128;52.094;5.232;2023-01-31T02:12:07;20.0;;;4.61;;
63953;SDS011;50128;52.094;5.232;2023-01-31T02:13:45;18.61;;;4.3;;
63953;SDS011;50128;52.094;5.232;2023-01-31T02:18:36;17.5;;;4.61;;
63953;SDS011;50128;52.094;5.232;2023-01-31T02:20:16;22.5;;;5.0;;
63953;SDS011;50128;52.094;5.232;2023-01-31T02:22:13;21.2;;;5.3;;
63953;SDS011;50128;52.094;5.232;2023-01-31T02:24:05;23.6;;;5.8;;
63953;SDS011;50128;52.094;5.232;2023-01-31T02:28:13;21.1;;;5.3;;
63953;SDS011;50128;52.094;5.232;2023-01-31T02:31:35;18.8;;;5.4;;
63953;SDS011;50128;52.094;5.232;2023-01-31T02:34:37;18.41;;;5.2;;
63953;SDS011;50128;52.094;5.232;2023-01-31T02:36:25;18.7;;;5.11;;
63953;SDS011;50128;52.094;5.232;2023-01-31T02:38:16;17.5;;;5.11;;
63953;SDS011;50128;52.094;5.232;2023-01-31T02:41:53;17.7;;;5.4;;
63953;SDS011;50128;52.094;5.232;2023-01-31T02:44:59;19.3;;;5.5;;
63953;SDS011;50128;52.094;5.232;2023-01-31T02:46:46;19.3;;;5.11;;
63953;SDS011;50128;52.094;5.232;2023-01-31T02:50:23;23.4;;;5.9;;
63953;SDS011;50128;52.094;5.232;2023-01-31T02:52:21;21.5;;;5.5;;
63953;SDS011;50128;52.094;5.232;2023-01-31T02:54:07;21.6;;;5.7;;
63953;SDS011;50128;52.094;5.232;2023-01-31T02:56:24;17.7;;;5.4;;
63953;SDS011;50128;52.094;5.232;2023-01-31T02:58:05;21.9;;;5.9;;
63953;SDS011;50128;52.094;5.232;2023-01-31T02:59:46;16.11;;;4.91;;
63953;SDS011;50128;52.094;5.232;2023-01-31T03:01:26;17.2;;;5.5;;
63953;SDS011;50128;52.094;5.232;2023-01-31T03:04:48;18.2;;;5.2;;
63953;SDS011;50128;52.094;5.232;2023-01-31T03:06:45;26.8;;;5.5;;
63953;SDS011;50128;52.094;5.232;2023-01-31T03:08:30;21.0;;;5.7;;
63953;SDS011;50128;52.094;5.232;2023-01-31T03:10:09;16.7;;;5.4;;
63953;SDS011;50128;52.094;5.232;2023-01-31T03:11:58;21.4;;;6.4;;
63953;SDS011;50128;52.094;5.232;2023-01-31T03:13:49;20.41;;;5.6;;
63953;SDS011;50128;52.094;5.232;2023-01-31T03:19:45;25.3;;;6.3;;
63953;SDS011;50128;52.094;5.232;2023-01-31T03:21:29;20.5;;;6.0;;
63953;SDS011;50128;52.094;5.232;2023-01-31T03:23:12;22.4;;;6.2;;
63953;SDS011;50128;52.094;5.232;2023-01-31T03:24:53;22.0;;;7.2;;
63953;SDS011;50128;52.094;5.232;2023-01-31T03:26:31;24.0;;;6.7;;
63953;SDS011;50128;52.094;5.232;2023-01-31T03:29:50;18.41;;;6.5;;
63953;SDS011;50128;52.094;5.232;2023-01-31T03:31:34;24.3;;;7.4;;
63953;SDS011;50128;52.094;5.232;2023-01-31T03:33:16;27.7;;;7.1;;
63953;SDS011;50128;52.094;5.232;2023-01-31T03:34:58;21.1;;;7.2;;
63953;SDS011;50128;52.094;5.232;2023-01-31T03:38:22;19.5;;;7.2;;
63953;SDS011;50128;52.094;5.232;2023-01-31T03:40:03;20.9;;;7.2;;
63953;SDS011;50128;52.094;5.232;2023-01-31T03:41:48;22.0;;;7.0;;
63953;SDS011;50128;52.094;5.232;2023-01-31T03:43:35;23.8;;;7.8;;
63953;SDS011;50128;52.094;5.232;2023-01-31T03:45:18;21.8;;;7.2;;
63953;SDS011;50128;52.094;5.232;2023-01-31T03:48:46;23.4;;;7.7;;
63953;SDS011;50128;52.094;5.232;2023-01-31T03:50:29;18.41;;;6.7;;
63953;SDS011;50128;52.094;5.232;2023-01-31T03:52:12;20.9;;;7.2;;
63953;SDS011;50128;52.094;5.232;2023-01-31T03:53:55;24.6;;;8.1;;
63953;SDS011;50128;52.094;5.232;2023-01-31T03:55:39;23.8;;;8.0;;
63953;SDS011;50128;52.094;5.232;2023-01-31T03:59:02;25.9;;;9.0;;
63953;SDS011;50128;52.094;5.232;2023-01-31T04:00:43;24.7;;;7.9;;
63953;SDS011;50128;52.094;5.232;2023-01-31T04:02:23;22.3;;;8.0;;
63953;SDS011;50128;52.094;5.232;2023-01-31T04:04:09;22.5;;;8.0;;
63953;SDS011;50128;52.094;5.232;2023-01-31T04:07:26;22.0;;;7.8;;
63953;SDS011;50128;52.094;5.232;2023-01-31T04:09:04;24.9;;;8.1;;
63953;SDS011;50128;52.094;5.232;2023-01-31T04:10:40;20.6;;;7.8;;
63953;SDS011;50128;52.094;5.232;2023-01-31T04:12:17;21.8;;;7.7;;
63953;SDS011;50128;52.094;5.232;2023-01-31T04:15:31;24.7;;;8.9;;
63953;SDS011;50128;52.094;5.232;2023-01-31T04:17:08;28.4;;;9.4;;
63953;SDS011;50128;52.094;5.232;2023-01-31T04:18:44;22.2;;;8.71;;
63953;SDS011;50128;52.094;5.232;2023-01-31T04:21:56;25.0;;;9.0;;
63953;SDS011;50128;52.094;5.232;2023-01-31T04:23:32;22.6;;;8.9;;
63953;SDS011;50128;52.094;5.232;2023-01-31T04:25:08;24.4;;;8.0;;
63953;SDS011;50128;52.094;5.232;2023-01-31T04:28:22;23.5;;;8.9;;
63953;SDS011;50128;52.094;5.232;2023-01-31T04:29:58;20.5;;;8.5;;
63953;SDS011;50128;52.094;5.232;2023-01-31T04:31:34;23.9;;;9.21;;
63953;SDS011;50128;52.094;5.232;2023-01-31T04:33:10;25.8;;;9.81;;
63953;SDS011;50128;52.094;5.232;2023-01-31T04:36:22;29.5;;;10.4;;
63953;SDS011;50128;52.094;5.232;2023-01-31T04:37:59;26.4;;;9.4;;
63953;SDS011;50128;52.094;5.232;2023-01-31T04:39:35;27.3;;;9.71;;
63953;SDS011;50128;52.094;5.232;2023-01-31T04:42:48;24.4;;;9.81;;
63953;SDS011;50128;52.094;5.232;2023-01-31T04:44:25;23.8;;;9.4;;
63953;SDS011;50128;52.094;5.232;2023-01-31T04:46:01;26.7;;;9.4;;
63953;SDS011;50128;52.094;5.232;2023-01-31T04:49:14;23.2;;;9.1;;
63953;SDS011;50128;52.094;5.232;2023-01-31T04:50:51;25.9;;;9.81;;
63953;SDS011;50128;52.094;5.232;2023-01-31T04:52:27;28.7;;;10.0;;
63953;SDS011;50128;52.094;5.232;2023-01-31T04:55:39;23.7;;;9.71;;
63953;SDS011;50128;52.094;5.232;2023-01-31T04:57:15;29.4;;;10.5;;
63953;SDS011;50128;52.094;5.232;2023-01-31T04:58:51;28.2;;;10.4;;
63953;SDS011;50128;52.094;5.232;2023-01-31T05:00:27;25.6;;;10.0;;
63953;SDS011;50128;52.094;5.232;2023-01-31T05:03:42;27.8;;;9.5;;
63953;SDS011;50128;52.094;5.232;2023-01-31T05:05:18;28.1;;;10.21;;
63953;SDS011;50128;52.094;5.232;2023-01-31T05:06:55;25.5;;;9.81;;
63953;SDS011;50128;52.094;5.232;2023-01-31T05:10:08;30.0;;;10.6;;
63953;SDS011;50128;52.094;5.232;2023-01-31T05:11:45;26.2;;;10.1;;
63953;SDS011;50128;52.094;5.232;2023-01-31T05:13:23;27.2;;;9.71;;
63953;SDS011;50128;52.094;5.232;2023-01-31T05:15:00;29.4;;;10.5;;
63953;SDS011;50128;52.094;5.232;2023-01-31T05:18:13;27.3;;;10.1;;
63953;SDS011;50128;52.094;5.232;2023-01-31T05:19:49;30.7;;;10.9;;
63953;SDS011;50128;52.094;5.232;2023-01-31T05:21:25;28.0;;;10.6;;
63953;SDS011;50128;52.094;5.232;2023-01-31T05:24:37;30.4;;;10.3;;
63953;SDS011;50128;52.094;5.232;2023-01-31T05:26:13;24.7;;;10.21;;
63953;SDS011;50128;52.094;5.232;2023-01-31T05:27:50;31.1;;;11.5;;
63953;SDS011;50128;52.094;5.232;2023-01-31T05:31:07;27.6;;;11.2;;
63953;SDS011;50128;52.094;5.232;2023-01-31T05:32:44;29.7;;;10.7;;
63953;SDS011;50128;52.094;5.232;2023-01-31T05:34:21;32.71;;;10.7;;
63953;SDS011;50128;52.094;5.232;2023-01-31T05:35:59;28.5;;;9.9;;
63953;SDS011;50128;52.094;5.232;2023-01-31T05:39:12;26.6;;;10.1;;
63953;SDS011;50128;52.094;5.232;2023-01-31T05:40:49;28.8;;;9.81;;
63953;SDS011;50128;52.094;5.232;2023-01-31T05:42:25;29.2;;;10.7;;
63953;SDS011;50128;52.094;5.232;2023-01-31T05:45:39;30.9;;;10.5;;
63953;SDS011;50128;52.094;5.232;2023-01-31T05:47:16;28.5;;;10.5;;
63953;SDS011;50128;52.094;5.232;2023-01-31T05:48:52;28.1;;;10.21;;
63953;SDS011;50128;52.094;5.232;2023-01-31T05:52:05;28.0;;;9.71;;
63953;SDS011;50128;52.094;5.232;2023-01-31T05:53:41;31.0;;;10.8;;
63953;SDS011;50128;52.094;5.232;2023-01-31T05:55:18;22.7;;;9.31;;
63953;SDS011;50128;52.094;5.232;2023-01-31T05:56:55;27.1;;;9.1;;
63953;SDS011;50128;52.094;5.232;2023-01-31T06:00:07;25.3;;;9.0;;
63953;SDS011;50128;52.094;5.232;2023-01-31T06:01:46;25.6;;;9.81;;
63953;SDS011;50128;52.094;5.232;2023-01-31T06:03:22;27.5;;;9.81;;
63953;SDS011;50128;52.094;5.232;2023-01-31T06:06:34;26.9;;;9.81;;
63953;SDS011;50128;52.094;5.232;2023-01-31T06:08:11;28.3;;;9.9;;
63953;SDS011;50128;52.094;5.232;2023-01-31T06:09:48;31.4;;;10.6;;
63953;SDS011;50128;52.094;5.232;2023-01-31T06:13:00;23.5;;;9.0;;
63953;SDS011;50128;52.094;5.232;2023-01-31T06:14:36;27.6;;;9.5;;
63953;SDS011;50128;52.094;5.232;2023-01-31T06:16:12;24.6;;;8.6;;
63953;SDS011;50128;52.094;5.232;2023-01-31T06:17:48;27.3;;;9.1;;
63953;SDS011;50128;52.094;5.232;2023-01-31T06:21:01;28.7;;;9.5;;
63953;SDS011;50128;52.094;5.232;2023-01-31T06:22:38;23.6;;;8.5;;
63953;SDS011;50128;52.094;5.232;2023-01-31T06:24:16;32.21;;;9.4;;
63953;SDS011;50128;52.094;5.232;2023-01-31T06:27:30;25.8;;;8.71;;
63953;SDS011;50128;52.094;5.232;2023-01-31T06:29:07;30.5;;;9.6;;
63953;SDS011;50128;52.094;5.232;2023-01-31T06:30:44;25.7;;;8.4;;
63953;SDS011;50128;52.094;5.232;2023-01-31T06:33:57;24.6;;;8.2;;
63953;SDS011;50128;52.094;5.232;2023-01-31T06:35:34;24.5;;;7.9;;
63953;SDS011;50128;52.094;5.232;2023-01-31T06:37:11;22.9;;;8.2;;
63953;SDS011;50128;52.094;5.232;2023-01-31T06:38:47;25.1;;;8.0;;
63953;SDS011;50128;52.094;5.232;2023-01-31T06:42:01;28.4;;;8.31;;
63953;SDS011;50128;52.094;5.232;2023-01-31T06:43:37;27.7;;;7.7;;
63953;SDS011;50128;52.094;5.232;2023-01-31T06:45:15;26.0;;;8.31;;
63953;SDS011;50128;52.094;5.232;2023-01-31T06:48:28;25.3;;;8.31;;
63953;SDS011;50128;52.094;5.232;2023-01-31T06:50:04;23.0;;;7.8;;
63953;SDS011;50128;52.094;5.232;2023-01-31T06:51:41;26.5;;;8.31;;
63953;SDS011;50128;52.094;5.232;2023-01-31T06:54:53;30.1;;;8.4;;
63953;SDS011;50128;52.094;5.232;2023-01-31T06:56:29;23.2;;;8.1;;
63953;SDS011;50128;52.094;5.232;2023-01-31T06:58:05;26.0;;;7.9;;
63953;SDS011;50128;52.094;5.232;2023-01-31T06:59:41;26.7;;;8.6;;
63953;SDS011;50128;52.094;5.232;2023-01-31T07:02:55;27.4;;;8.4;;
63953;SDS011;50128;52.094;5.232;2023-01-31T07:04:32;25.6;;;7.6;;
63953;SDS011;50128;52.094;5.232;2023-01-31T07:06:08;20.0;;;7.9;;
63953;SDS011;50128;52.094;5.232;2023-01-31T07:09:22;27.9;;;8.31;;
63953;SDS011;50128;52.094;5.232;2023-01-31T07:11:00;28.1;;;8.2;;
63953;SDS011;50128;52.094;5.232;2023-01-31T07:12:37;24.3;;;8.2;;
63953;SDS011;50128;52.094;5.232;2023-01-31T07:14:14;25.1;;;7.9;;
63953;SDS011;50128;52.094;5.232;2023-01-31T07:17:27;27.4;;;8.0;;
63953;SDS011;50128;52.094;5.232;2023-01-31T07:19:03;25.9;;;7.9;;
63953;SDS011;50128;52.094;5.232;2023-01-31T07:20:39;24.5;;;8.2;;
63953;SDS011;50128;52.094;5.232;2023-01-31T07:23:53;22.8;;;7.7;;
63953;SDS011;50128;52.094;5.232;2023-01-31T07:25:33;26.5;;;8.2;;
63953;SDS011;50128;52.094;5.232;2023-01-31T07:27:11;25.1;;;7.5;;
63953;SDS011;50128;52.094;5.232;2023-01-31T07:30:24;25.9;;;7.9;;
63953;SDS011;50128;52.094;5.232;2023-01-31T07:32:01;25.5;;;7.9;;
63953;SDS011;50128;52.094;5.232;2023-01-31T07:33:37;25.4;;;7.8;;
63953;SDS011;50128;52.094;5.232;2023-01-31T07:35:15;29.9;;;8.6;;
63953;SDS011;50128;52.094;5.232;2023-01-31T07:38:28;23.0;;;7.8;;
63953;SDS011;50128;52.094;5.232;2023-01-31T07:40:06;25.2;;;8.0;;
63953;SDS011;50128;52.094;5.232;2023-01-31T07:41:43;22.4;;;7.4;;
63953;SDS011;50128;52.094;5.232;2023-01-31T07:44:56;24.6;;;8.2;;
63953;SDS011;50128;52.094;5.232;2023-01-31T07:46:32;24.6;;;7.2;;
63953;SDS011;50128;52.094;5.232;2023-01-31T07:48:08;23.5;;;7.6;;
63953;SDS011;50128;52.094;5.232;2023-01-31T07:51:20;27.1;;;9.0;;
63953;SDS011;50128;52.094;5.232;2023-01-31T07:52:57;23.4;;;7.6;;
63953;SDS011;50128;52.094;5.232;2023-01-31T07:54:34;27.4;;;7.7;;
63953;SDS011;50128;52.094;5.232;2023-01-31T07:56:10;26.8;;;8.2;;
63953;SDS011;50128;52.094;5.232;2023-01-31T07:59:25;23.6;;;7.1;;
63953;SDS011;50128;52.094;5.232;2023-01-31T08:04:14;24.2;;;7.5;;
63953;SDS011;50128;52.094;5.232;2023-01-31T08:05:52;24.2;;;6.9;;
63953;SDS011;50128;52.094;5.232;2023-01-31T08:07:28;25.5;;;7.8;;
63953;SDS011;50128;52.094;5.232;2023-01-31T08:09:05;23.9;;;7.7;;
63953;SDS011;50128;52.094;5.232;2023-01-31T08:12:18;21.8;;;6.5;;
63953;SDS011;50128;52.094;5.232;2023-01-31T08:13:54;25.4;;;6.8;;
63953;SDS011;50128;52.094;5.232;2023-01-31T08:15:30;24.4;;;7.4;;
63953;SDS011;50128;52.094;5.232;2023-01-31T08:17:08;20.8;;;6.9;;
63953;SDS011;50128;52.094;5.232;2023-01-31T08:20:22;25.4;;;6.6;;
63953;SDS011;50128;52.094;5.232;2023-01-31T08:21:58;18.7;;;6.1;;
63953;SDS011;50128;52.094;5.232;2023-01-31T08:23:37;22.2;;;7.1;;
63953;SDS011;50128;52.094;5.232;2023-01-31T08:26:49;23.0;;;6.6;;
63953;SDS011;50128;52.094;5.232;2023-01-31T08:28:25;24.5;;;6.7;;
63953;SDS011;50128;52.094;5.232;2023-01-31T08:30:01;18.2;;;6.3;;
63953;SDS011;50128;52.094;5.232;2023-01-31T08:31:39;22.5;;;6.7;;
63953;SDS011;50128;52.094;5.232;2023-01-31T08:34:52;21.1;;;6.3;;
63953;SDS011;50128;52.094;5.232;2023-01-31T08:36:30;61.4;;;44.3;;
63953;SDS011;50128;52.094;5.232;2023-01-31T08:38:06;75.11;;;67.0;;
63953;SDS011;50128;52.094;5.232;2023-01-31T08:41:19;25.1;;;11.3;;
63953;SDS011;50128;52.094;5.232;2023-01-31T08:42:59;22.7;;;6.3;;
63953;SDS011;50128;52.094;5.232;2023-01-31T08:44:37;26.7;;;14.3;;
63953;SDS011;50128;52.094;5.232;2023-01-31T08:47:52;73.11;;;53.0;;
63953;SDS011;50128;52.094;5.232;2023-01-31T08:49:29;37.81;;;19.91;;
63953;SDS011;50128;52.094;5.232;2023-01-31T08:51:06;37.6;;;26.5;;
63953;SDS011;50128;52.094;5.232;2023-01-31T08:52:44;47.7;;;41.4;;
63953;SDS011;50128;52.094;5.232;2023-01-31T08:55:57;38.31;;;27.7;;
63953;SDS011;50128;52.094;5.232;2023-01-31T08:57:33;131.2;;;115.9;;
63953;SDS011;50128;52.094;5.232;2023-01-31T08:59:10;140.81;;;125.2;;
63953;SDS011;50128;52.094;5.232;2023-01-31T09:02:23;219.3;;;196.2;;
63953;SDS011;50128;52.094;5.232;2023-01-31T09:03:59;32.3;;;23.7;;
63953;SDS011;50128;52.094;5.232;2023-01-31T09:05:35;31.7;;;21.5;;
63953;SDS011;50128;52.094;5.232;2023-01-31T09:08:48;25.0;;;14.1;;
63953;SDS011;50128;52.094;5.232;2023-01-31T09:10:23;16.9;;;6.6;;
63953;SDS011;50128;52.094;5.232;2023-01-31T09:12:00;20.5;;;6.0;;
63953;SDS011;50128;52.094;5.232;2023-01-31T09:13:38;21.1;;;6.5;;
63953;SDS011;50128;52.094;5.232;2023-01-31T09:16:51;21.0;;;6.0;;
63953;SDS011;50128;52.094;5.232;2023-01-31T09:18:27;20.7;;;6.5;;
63953;SDS011;50128;52.094;5.232;2023-01-31T09:20:06;20.7;;;6.3;;
63953;SDS011;50128;52.094;5.232;2023-01-31T09:23:19;22.6;;;6.1;;
63953;SDS011;50128;52.094;5.232;2023-01-31T09:24:58;22.3;;;6.0;;
63953;SDS011;50128;52.094;5.232;2023-01-31T09:26:34;22.3;;;6.5;;
63953;SDS011;50128;52.094;5.232;2023-01-31T09:28:11;17.61;;;5.7;;
63953;SDS011;50128;52.094;5.232;2023-01-31T09:31:23;19.3;;;6.2;;
63953;SDS011;50128;52.094;5.232;2023-01-31T09:33:00;20.2;;;6.5;;
63953;SDS011;50128;52.094;5.232;2023-01-31T09:34:36;22.3;;;6.6;;
63953;SDS011;50128;52.094;5.232;2023-01-31T09:37:51;21.5;;;8.5;;
63953;SDS011;50128;52.094;5.232;2023-01-31T09:39:27;21.8;;;6.8;;
63953;SDS011;50128;52.094;5.232;2023-01-31T09:41:04;21.9;;;7.6;;
63953;SDS011;50128;52.094;5.232;2023-01-31T09:43:01;20.5;;;8.6;;
63953;SDS011;50128;52.094;5.232;2023-01-31T09:46:18;24.0;;;7.8;;
63953;SDS011;50128;52.094;5.232;2023-01-31T09:47:59;23.4;;;7.8;;
63953;SDS011;50128;52.094;5.232;2023-01-31T09:49:38;25.2;;;7.8;;
63953;SDS011;50128;52.094;5.232;2023-01-31T09:51:25;20.9;;;7.6;;
63953;SDS011;50128;52.094;5.232;2023-01-31T09:54:39;24.7;;;7.6;;
63953;SDS011;50128;52.094;5.232;2023-01-31T09:56:19;19.8;;;7.4;;
63953;SDS011;50128;52.094;5.232;2023-01-31T09:58:06;21.9;;;7.1;;
63953;SDS011;50128;52.094;5.232;2023-01-31T09:59:56;23.6;;;7.4;;
63953;SDS011;50128;52.094;5.232;2023-01-31T10:01:45;19.91;;;7.4;;
63953;SDS011;50128;52.094;5.232;2023-01-31T10:05:54;17.61;;;6.6;;
63953;SDS011;50128;52.094;5.232;2023-01-31T10:09:27;20.7;;;7.7;;
63953;SDS011;50128;52.094;5.232;2023-01-31T10:11:09;22.6;;;7.4;;
63953;SDS011;50128;52.094;5.232;2023-01-31T10:12:50;20.5;;;7.0;;
63953;SDS011;50128;52.094;5.232;2023-01-31T10:14:33;24.6;;;6.8;;
63953;SDS011;50128;52.094;5.232;2023-01-31T10:16:18;22.7;;;7.3;;
63953;SDS011;50128;52.094;5.232;2023-01-31T10:19:46;26.1;;;7.5;;
63953;SDS011;50128;52.094;5.232;2023-01-31T10:21:29;21.6;;;6.6;;
63953;SDS011;50128;52.094;5.232;2023-01-31T10:23:13;22.0;;;7.1;;
63953;SDS011;50128;52.094;5.232;2023-01-31T10:24:58;21.7;;;6.8;;
63953;SDS011;50128;52.094;5.232;2023-01-31T10:26:54;23.1;;;9.21;;
63953;SDS011;50128;52.094;5.232;2023-01-31T10:30:24;24.6;;;10.0;;
63953;SDS011;50128;52.094;5.232;2023-01-31T10:32:11;20.3;;;9.31;;
63953;SDS011;50128;52.094;5.232;2023-01-31T10:33:56;20.9;;;7.8;;
63953;SDS011;50128;52.094;5.232;2023-01-31T10:35:38;20.11;;;7.6;;
63953;SDS011;50128;52.094;5.232;2023-01-31T10:37:24;22.3;;;8.71;;
63953;SDS011;50128;52.094;5.232;2023-01-31T10:40:56;17.7;;;6.9;;
63953;SDS011;50128;52.094;5.232;2023-01-31T10:42:41;20.41;;;6.7;;
63953;SDS011;50128;52.094;5.232;2023-01-31T10:44:26;17.2;;;5.9;;
63953;SDS011;50128;52.094;5.232;2023-01-31T10:46:21;22.9;;;6.9;;
63953;SDS011;50128;52.094;5.232;2023-01-31T10:48:04;18.5;;;5.9;;
63953;SDS011;50128;52.094;5.232;2023-01-31T10:49:49;20.8;;;6.7;;
63953;SDS011;50128;52.094;5.232;2023-01-31T10:53:30;19.8;;;6.4;;
63953;SDS011;50128;52.094;5.232;2023-01-31T10:55:29;21.9;;;5.9;;
63953;SDS011;50128;52.094;5.232;2023-01-31T10:57:30;23.3;;;6.1;;
63953;SDS011;50128;52.094;5.232;2023-01-31T10:59:10;18.91;;;5.7;;
63953;SDS011;50128;52.094;5.232;2023-01-31T11:00:53;19.0;;;5.8;;
63953;SDS011;50128;52.094;5.232;2023-01-31T11:02:29;22.2;;;6.4;;
63953;SDS011;50128;52.094;5.232;2023-01-31T11:06:05;17.41;;;5.3;;
63953;SDS011;50128;52.094;5.232;2023-01-31T11:07:41;18.91;;;5.5;;
63953;SDS011;50128;52.094;5.232;2023-01-31T11:09:17;22.0;;;6.2;;
63953;SDS011;50128;52.094;5.232;2023-01-31T11:10:56;22.0;;;6.2;;
63953;SDS011;50128;52.094;5.232;2023-01-31T11:14:28;72.5;;;49.1;;
63953;SDS011;50128;52.094;5.232;2023-01-31T11:16:06;76.7;;;58.4;;
63953;SDS011;50128;52.094;5.232;2023-01-31T11:17:45;37.0;;;28.0;;
63953;SDS011;50128;52.094;5.232;2023-01-31T11:19:25;19.8;;;7.1;;
63953;SDS011;50128;52.094;5.232;2023-01-31T11:21:08;19.7;;;6.3;;
63953;SDS011;50128;52.094;5.232;2023-01-31T11:24:33;25.3;;;18.2;;
63953;SDS011;50128;52.094;5.232;2023-01-31T11:26:23;25.5;;;6.7;;
63953;SDS011;50128;52.094;5.232;2023-01-31T11:28:03;21.2;;;8.31;;
63953;SDS011;50128;52.094;5.232;2023-01-31T11:29:54;21.2;;;6.0;;
63953;SDS011;50128;52.094;5.232;2023-01-31T11:31:33;21.6;;;5.6;;
63953;SDS011;50128;52.094;5.232;2023-01-31T11:35:33;19.3;;;6.5;;
63953;SDS011;50128;52.094;5.232;2023-01-31T11:37:12;24.2;;;6.3;;
63953;SDS011;50128;52.094;5.232;2023-01-31T11:38:51;19.5;;;5.4;;
63953;SDS011;50128;52.094;5.232;2023-01-31T11:40:30;18.3;;;5.4;;
63953;SDS011;50128;52.094;5.232;2023-01-31T11:42:11;17.61;;;5.5;;
63953;SDS011;50128;52.094;5.232;2023-01-31T11:45:42;21.1;;;5.3;;
63953;SDS011;50128;52.094;5.232;2023-01-31T11:47:22;22.0;;;5.7;;
63953;SDS011;50128;52.094;5.232;2023-01-31T11:49:09;18.11;;;5.2;;
63953;SDS011;50128;52.094;5.232;2023-01-31T11:50:49;20.6;;;5.8;;
63953;SDS011;50128;52.094;5.232;2023-01-31T11:52:29;21.5;;;5.4;;
63953;SDS011;50128;52.094;5.232;2023-01-31T11:55:53;18.2;;;5.2;;
63953;SDS011;50128;52.094;5.232;2023-01-31T11:57:52;23.2;;;5.2;;
63953;SDS011;50128;52.094;5.232;2023-01-31T11:59:30;19.0;;;5.3;;
63953;SDS011;50128;52.094;5.232;2023-01-31T12:01:11;18.7;;;5.4;;
63953;SDS011;50128;52.094;5.232;2023-01-31T12:04:38;22.1;;;4.7;;
63953;SDS011;50128;52.094;5.232;2023-01-31T12:06:25;19.41;;;5.4;;
63953;SDS011;50128;52.094;5.232;2023-01-31T12:09:41;16.0;;;4.7;;
63953;SDS011;50128;52.094;5.232;2023-01-31T12:11:22;20.6;;;5.0;;
63953;SDS011;50128;52.094;5.232;2023-01-31T12:14:49;17.3;;;4.41;;
63953;SDS011;50128;52.094;5.232;2023-01-31T12:16:30;16.8;;;4.5;;
63953;SDS011;50128;52.094;5.232;2023-01-31T12:18:07;18.5;;;7.9;;
63953;SDS011;50128;52.094;5.232;2023-01-31T12:19:50;22.5;;;7.3;;
63953;SDS011;50128;52.094;5.232;2023-01-31T12:23:30;20.3;;;9.9;;
63953;SDS011;50128;52.094;5.232;2023-01-31T12:25:17;28.0;;;18.2;;
63953;SDS011;50128;52.094;5.232;2023-01-31T12:27:02;18.2;;;6.3;;
63953;SDS011;50128;52.094;5.232;2023-01-31T12:28:53;23.4;;;10.1;;
63953;SDS011;50128;52.094;5.232;2023-01-31T12:30:52;21.5;;;13.0;;
63953;SDS011;50128;52.094;5.232;2023-01-31T12:32:51;19.3;;;7.3;;
63953;SDS011;50128;52.094;5.232;2023-01-31T12:35:01;24.9;;;11.9;;
63953;SDS011;50128;52.094;5.232;2023-01-31T12:36:58;23.6;;;8.71;;
63953;SDS011;50128;52.094;5.232;2023-01-31T12:38:56;24.2;;;17.11;;
63953;SDS011;50128;52.094;5.232;2023-01-31T12:40:42;22.1;;;7.6;;
63953;SDS011;50128;52.094;5.232;2023-01-31T12:44:36;17.61;;;5.5;;
63953;SDS011;50128;52.094;5.232;2023-01-31T12:46:20;17.61;;;5.5;;
63953;SDS011;50128;52.094;5.232;2023-01-31T12:48:10;15.8;;;4.7;;
63953;SDS011;50128;52.094;5.232;2023-01-31T12:50:30;16.3;;;4.41;;
63953;SDS011;50128;52.094;5.232;2023-01-31T12:52:17;20.0;;;4.8;;
63953;SDS011;50128;52.094;5.232;2023-01-31T12:54:03;17.5;;;4.5;;
63953;SDS011;50128;52.094;5.232;2023-01-31T12:55:59;16.7;;;4.7;;
63953;SDS011;50128;52.094;5.232;2023-01-31T12:57:50;18.5;;;4.91;;
63953;SDS011;50128;52.094;5.232;2023-01-31T12:59:43;20.41;;;5.0;;